createdAt,value
2022-10-18T00:01:18.681Z,6.78
2022-10-18T00:04:21.999Z,6.77
2022-10-18T00:07:24.807Z,6.78
2022-10-18T00:10:27.923Z,6.79
2022-10-18T00:13:30.549Z,6.76
2022-10-18T00:16:33.464Z,6.70
2022-10-18T00:19:36.290Z,6.65
2022-10-18T00:22:40.952Z,6.69
2022-10-18T00:25:43.591Z,6.66
2022-10-18T00:28:50.366Z,6.58
2022-10-18T00:31:53.252Z,6.61
2022-10-18T00:34:56.234Z,6.61
2022-10-18T00:37:58.920Z,6.59
2022-10-18T00:41:02.332Z,6.55
2022-10-18T00:44:26.458Z,6.51
2022-10-18T00:47:30.113Z,6.45
2022-10-18T00:50:35.022Z,6.43
2022-10-18T00:53:38.232Z,6.41
2022-10-18T00:56:41.815Z,6.36
2022-10-18T00:59:46.638Z,6.39
2022-10-18T01:02:49.682Z,6.34
2022-10-18T01:05:52.838Z,6.34
2022-10-18T01:09:04.737Z,6.40
2022-10-18T01:12:33.184Z,6.47
2022-10-18T01:16:01.896Z,6.54
2022-10-18T01:19:29.804Z,6.62
2022-10-18T01:22:43.799Z,6.59
2022-10-18T01:26:03.612Z,6.65
2022-10-18T01:29:38.641Z,6.65
2022-10-18T01:32:48.770Z,6.44
2022-10-18T01:36:17.390Z,6.41
2022-10-18T01:39:26.702Z,6.31
2022-10-18T01:42:30.353Z,6.29
2022-10-18T01:45:33.437Z,6.24
2022-10-18T01:48:38.151Z,6.20
2022-10-18T01:51:41.111Z,6.18
2022-10-18T01:54:50.893Z,6.12
2022-10-18T01:57:59.996Z,6.08
2022-10-18T02:01:18.219Z,6.04
2022-10-18T02:04:41.146Z,5.98
2022-10-18T02:07:55.454Z,5.92
2022-10-18T02:11:14.756Z,5.86
2022-10-18T02:14:19.584Z,5.81
2022-10-18T02:17:27.958Z,5.79
2022-10-18T02:20:32.568Z,5.77
2022-10-18T02:23:36.334Z,5.77
2022-10-18T02:26:40.003Z,5.74
2022-10-18T02:29:44.409Z,5.73
2022-10-18T02:32:59.052Z,5.70
2022-10-18T02:36:13.853Z,5.67
2022-10-18T02:39:25.228Z,5.63
2022-10-18T02:42:35.588Z,5.57
2022-10-18T02:45:38.224Z,5.55
2022-10-18T02:48:41.261Z,5.54
2022-10-18T02:51:43.993Z,5.51
2022-10-18T02:54:47.135Z,5.51
2022-10-18T02:57:49.967Z,5.53
2022-10-18T03:00:53.090Z,5.51
2022-10-18T03:03:56.002Z,5.48
2022-10-18T03:06:59.023Z,5.44
2022-10-18T03:10:02.297Z,5.41
2022-10-18T03:13:05.530Z,5.35
2022-10-18T03:16:08.466Z,5.32
2022-10-18T03:19:11.411Z,5.26
2022-10-18T03:22:14.084Z,5.22
2022-10-18T03:25:17.164Z,5.20
2022-10-18T03:28:20.044Z,5.25
2022-10-18T03:31:23.516Z,5.24
2022-10-18T03:34:26.747Z,5.16
2022-10-18T03:37:29.855Z,5.15
2022-10-18T03:40:33.989Z,5.16
2022-10-18T03:43:37.013Z,5.20
2022-10-18T03:46:39.980Z,5.17
2022-10-18T03:49:43.047Z,5.10
2022-10-18T03:52:45.772Z,5.07
2022-10-18T03:55:53.291Z,5.03
2022-10-18T03:58:57.251Z,4.99
2022-10-18T04:02:00.541Z,4.94
2022-10-18T04:05:03.902Z,4.93
2022-10-18T04:08:06.686Z,4.98
2022-10-18T04:11:11.184Z,5.00
2022-10-18T04:14:13.762Z,4.94
2022-10-18T04:17:16.880Z,4.94
2022-10-18T04:20:20.140Z,4.96
2022-10-18T04:23:23.123Z,4.98
2022-10-18T04:26:25.859Z,4.98
2022-10-18T04:29:28.815Z,5.00
2022-10-18T04:32:31.558Z,5.08
2022-10-18T04:35:34.492Z,5.12
2022-10-18T04:38:37.273Z,5.09
2022-10-18T04:41:40.358Z,5.14
2022-10-18T04:44:43.040Z,5.13
2022-10-18T04:47:45.853Z,5.17
2022-10-18T04:50:49.854Z,5.18
2022-10-18T04:53:52.879Z,5.14
2022-10-18T04:56:56.141Z,5.11
2022-10-18T04:59:59.065Z,5.07
2022-10-18T05:03:01.785Z,5.05
2022-10-18T05:06:05.532Z,5.05
2022-10-18T05:09:08.289Z,5.00
2022-10-18T05:12:11.240Z,4.94
2022-10-18T05:15:13.904Z,4.88
2022-10-18T05:18:16.915Z,4.87
2022-10-18T05:21:19.757Z,4.92
2022-10-18T05:24:25.471Z,4.94
2022-10-18T05:27:30.550Z,5.01
2022-10-18T05:30:34.022Z,4.99
2022-10-18T05:33:36.820Z,5.03
2022-10-18T05:36:39.721Z,5.01
2022-10-18T05:39:42.380Z,5.05
2022-10-18T05:42:45.273Z,5.24
2022-10-18T05:45:51.478Z,5.33
2022-10-18T05:48:54.328Z,5.43
2022-10-18T05:51:57.927Z,5.59
2022-10-18T05:55:01.706Z,6.48
2022-10-18T05:58:04.550Z,7.40
2022-10-18T06:01:08.407Z,8.14
2022-10-18T06:04:11.633Z,8.80
2022-10-18T06:07:14.312Z,9.36
2022-10-18T06:10:20.768Z,9.85
2022-10-18T06:13:23.436Z,10.09
2022-10-18T06:16:31.372Z,10.63
2022-10-18T06:19:35.235Z,10.96
2022-10-18T06:22:38.186Z,11.55
2022-10-18T06:25:40.769Z,11.64
2022-10-18T06:28:43.746Z,12.07
2022-10-18T06:31:46.488Z,12.28
2022-10-18T06:34:49.297Z,12.80
2022-10-18T06:37:52.008Z,13.01
2022-10-18T06:40:55.746Z,13.25
2022-10-18T06:44:03.223Z,14.02
2022-10-18T06:47:07.820Z,14.48
2022-10-18T06:50:11.648Z,14.62
2022-10-18T06:53:14.526Z,15.49
2022-10-18T06:56:17.120Z,15.74
2022-10-18T06:59:20.127Z,15.95
2022-10-18T07:02:22.650Z,16.95
2022-10-18T07:05:25.691Z,17.65
2022-10-18T07:08:28.486Z,18.06
2022-10-18T07:11:31.723Z,17.95
2022-10-18T07:14:34.337Z,18.27
2022-10-18T07:17:37.167Z,18.16
2022-10-18T07:20:40.094Z,18.43
2022-10-18T07:23:45.987Z,18.86
2022-10-18T07:26:48.534Z,18.89
2022-10-18T07:29:51.562Z,18.67
2022-10-18T07:32:54.104Z,19.08
2022-10-18T07:36:02.022Z,18.75
2022-10-18T07:39:05.105Z,18.47
2022-10-18T07:42:08.125Z,18.64
2022-10-18T07:45:12.598Z,18.24
2022-10-18T07:48:15.483Z,18.36
2022-10-18T07:51:19.461Z,18.19
2022-10-18T07:54:22.553Z,17.79
2022-10-18T07:57:25.148Z,17.85
2022-10-18T08:00:28.101Z,17.65
2022-10-18T08:03:31.612Z,17.76
2022-10-18T08:06:34.683Z,18.06
2022-10-18T08:09:39.085Z,17.84
2022-10-18T08:12:41.901Z,16.88
2022-10-18T08:15:44.852Z,17.39
2022-10-18T08:18:47.527Z,16.50
2022-10-18T08:21:50.337Z,16.96
2022-10-18T08:24:52.915Z,17.40
2022-10-18T08:27:55.736Z,17.38
2022-10-18T08:31:13.181Z,17.44
2022-10-18T08:37:38.581Z,16.83
2022-10-18T08:40:44.656Z,16.92
2022-10-18T08:44:09.049Z,16.83
2022-10-18T08:47:28.855Z,16.78
2022-10-18T08:50:37.833Z,16.67
2022-10-18T08:53:55.638Z,16.67
2022-10-18T08:57:01.038Z,16.50
2022-10-18T09:00:16.740Z,16.51
2022-10-18T09:03:36.402Z,16.36
2022-10-18T09:06:44.747Z,15.81
2022-10-18T09:09:59.591Z,15.80
2022-10-18T09:13:05.276Z,16.35
2022-10-18T09:16:54.186Z,16.51
2022-10-18T09:20:15.825Z,16.65
2022-10-18T09:23:31.521Z,16.56
2022-10-18T09:26:47.286Z,17.04
2022-10-18T09:30:20.815Z,17.03
2022-10-18T09:33:41.834Z,16.35
2022-10-18T09:36:45.472Z,16.77
2022-10-18T09:39:51.019Z,16.84
2022-10-18T09:43:00.004Z,17.03
2022-10-18T09:46:05.222Z,17.16
2022-10-18T09:49:27.317Z,17.35
2022-10-18T09:52:43.631Z,17.07
2022-10-18T09:55:54.766Z,16.76
2022-10-18T09:58:57.649Z,16.96
2022-10-18T10:02:00.493Z,17.00
2022-10-18T10:05:03.610Z,17.16
2022-10-18T10:08:06.822Z,17.22
2022-10-18T10:11:35.023Z,17.04
2022-10-18T10:14:44.040Z,17.09
2022-10-18T10:18:05.864Z,17.13
2022-10-18T10:21:15.137Z,17.26
2022-10-18T10:24:27.360Z,16.93
2022-10-18T10:27:46.138Z,17.17
2022-10-18T10:30:49.738Z,17.16
2022-10-18T10:34:05.382Z,17.34
2022-10-18T10:37:23.332Z,17.33
2022-10-18T10:40:34.834Z,17.14
2022-10-18T10:43:40.093Z,16.93
2022-10-18T10:46:43.483Z,17.14
2022-10-18T10:49:47.849Z,17.20
2022-10-18T10:52:50.665Z,17.07
2022-10-18T10:55:56.081Z,17.20
2022-10-18T10:59:14.905Z,17.23
2022-10-18T11:02:23.458Z,17.54
2022-10-18T11:05:29.441Z,17.65
2022-10-18T11:08:38.954Z,17.77
2022-10-18T11:11:51.892Z,17.65
2022-10-18T11:15:10.610Z,17.84
2022-10-18T11:18:25.704Z,18.02
2022-10-18T11:21:31.863Z,18.13
2022-10-18T11:24:36.107Z,18.20
2022-10-18T11:27:42.276Z,18.27
2022-10-18T11:31:16.093Z,18.43
2022-10-18T11:34:43.066Z,18.39
2022-10-18T11:37:58.409Z,18.56
2022-10-18T11:41:24.881Z,18.58
2022-10-18T11:44:37.558Z,18.60
2022-10-18T11:47:57.906Z,18.32
2022-10-18T11:51:29.668Z,18.38
2022-10-18T11:55:06.440Z,18.45
2022-10-18T11:58:36.799Z,18.51
2022-10-18T12:01:44.167Z,18.66
2022-10-18T12:04:58.555Z,18.73
2022-10-18T12:08:26.778Z,18.67
2022-10-18T12:11:33.975Z,18.84
2022-10-18T12:14:46.401Z,18.76
2022-10-18T12:17:56.181Z,18.78
2022-10-18T12:21:00.037Z,18.74
2022-10-18T12:24:16.201Z,18.82
2022-10-18T12:27:24.593Z,18.93
2022-10-18T12:30:42.341Z,18.93
2022-10-18T12:33:49.530Z,18.82
2022-10-18T12:37:22.954Z,18.87
2022-10-18T12:40:48.466Z,18.91
2022-10-18T12:43:54.248Z,18.67
2022-10-18T12:46:59.470Z,18.60
2022-10-18T12:50:06.830Z,18.70
2022-10-18T12:53:09.632Z,18.75
2022-10-18T12:56:27.813Z,18.79
2022-10-18T12:59:30.283Z,18.78
2022-10-18T13:02:33.749Z,18.89
2022-10-18T13:05:54.330Z,18.93
2022-10-18T13:09:20.509Z,19.05
2022-10-18T13:12:22.944Z,19.09
2022-10-18T13:15:37.554Z,19.13
2022-10-18T13:18:59.980Z,19.07
2022-10-18T13:22:21.125Z,19.08
2022-10-18T13:25:28.599Z,19.13
2022-10-18T13:28:38.887Z,19.15
2022-10-18T13:32:27.641Z,19.13
2022-10-18T13:36:00.475Z,19.13
2022-10-18T13:39:06.072Z,19.07
2022-10-18T13:42:14.769Z,19.06
2022-10-18T13:45:32.458Z,19.00
2022-10-18T13:48:35.298Z,19.01
2022-10-18T13:51:50.562Z,18.98
2022-10-18T13:55:30.649Z,18.94
2022-10-18T13:59:14.077Z,18.90
2022-10-18T14:02:57.539Z,18.89
2022-10-18T14:06:10.389Z,18.83
2022-10-18T14:09:26.006Z,18.82
2022-10-18T14:12:41.737Z,18.69
2022-10-18T14:15:48.521Z,18.69
2022-10-18T14:18:54.704Z,18.34
2022-10-18T14:22:20.007Z,18.29
2022-10-18T14:25:39.390Z,18.41
2022-10-18T14:28:59.049Z,18.45
2022-10-18T14:32:02.325Z,18.40
2022-10-18T14:35:32.968Z,18.17
2022-10-18T14:38:38.686Z,17.91
2022-10-18T14:41:52.702Z,17.68
2022-10-18T14:44:56.557Z,17.47
2022-10-18T14:48:22.233Z,17.45
2022-10-18T14:51:36.620Z,17.40
2022-10-18T14:54:39.813Z,17.06
2022-10-18T14:57:42.631Z,16.90
2022-10-18T15:00:48.570Z,16.65
2022-10-18T15:03:56.890Z,16.43
2022-10-18T15:07:01.317Z,16.16
2022-10-18T15:10:05.391Z,16.02
2022-10-18T15:13:10.478Z,15.69
2022-10-18T15:16:19.335Z,15.60
2022-10-18T15:19:21.837Z,15.31
2022-10-18T15:22:32.345Z,15.25
2022-10-18T15:25:35.995Z,15.09
2022-10-18T15:28:53.812Z,14.94
2022-10-18T15:32:04.387Z,14.77
2022-10-18T15:35:14.290Z,14.60
2022-10-18T15:38:26.262Z,14.40
2022-10-18T15:41:43.625Z,14.22
2022-10-18T15:44:51.295Z,14.06
2022-10-18T15:48:09.298Z,13.90
2022-10-18T15:51:27.152Z,13.75
2022-10-18T15:54:30.887Z,13.50
2022-10-18T15:57:33.851Z,13.33
2022-10-18T16:00:37.396Z,13.07
2022-10-18T16:03:40.693Z,13.01
2022-10-18T16:06:43.280Z,12.87
2022-10-18T16:09:46.107Z,12.76
2022-10-18T16:12:48.800Z,12.58
2022-10-18T16:15:52.300Z,12.46
2022-10-18T16:18:55.462Z,12.34
2022-10-18T16:22:03.643Z,12.18
2022-10-18T16:25:09.581Z,12.02
2022-10-18T16:28:20.547Z,11.82
2022-10-18T16:31:26.436Z,11.73
2022-10-18T16:34:29.541Z,11.66
2022-10-18T16:37:32.117Z,11.61
2022-10-18T16:40:37.689Z,11.52
2022-10-18T16:43:45.535Z,11.37
2022-10-18T16:46:51.162Z,11.21
2022-10-18T16:49:56.473Z,11.08
2022-10-18T16:52:59.301Z,11.04
2022-10-18T16:56:03.595Z,10.98
2022-10-18T16:59:06.555Z,10.81
2022-10-18T17:02:09.559Z,10.67
2022-10-18T17:05:12.543Z,10.57
2022-10-18T17:08:24.204Z,10.47
2022-10-18T17:11:28.489Z,10.39
2022-10-18T17:14:33.298Z,10.33
2022-10-18T17:17:37.075Z,10.18
2022-10-18T17:20:41.815Z,10.14
2022-10-18T17:23:44.629Z,10.03
2022-10-18T17:26:47.179Z,10.03
2022-10-18T17:29:50.040Z,9.92
2022-10-18T17:32:53.877Z,9.86
2022-10-18T17:35:58.263Z,9.81
2022-10-18T17:39:00.932Z,9.63
2022-10-18T17:42:03.852Z,9.62
2022-10-18T17:45:07.002Z,9.55
2022-10-18T17:48:10.069Z,9.45
2022-10-18T17:51:15.301Z,9.38
2022-10-18T17:54:18.208Z,9.33
2022-10-18T17:57:20.716Z,9.23
2022-10-18T18:00:24.675Z,9.21
2022-10-18T18:03:27.554Z,9.20
2022-10-18T18:06:39.138Z,9.14
2022-10-18T18:09:42.075Z,9.13
2022-10-18T18:12:45.592Z,9.17
2022-10-18T18:15:48.436Z,9.03
2022-10-18T18:18:54.351Z,8.93
2022-10-18T18:21:58.813Z,8.88
2022-10-18T18:25:01.445Z,8.89
2022-10-18T18:28:07.637Z,8.81
2022-10-18T18:31:17.902Z,8.83
2022-10-18T18:34:23.441Z,8.80
2022-10-18T18:37:26.057Z,8.68
2022-10-18T18:40:28.860Z,8.64
2022-10-18T18:43:31.540Z,8.52
2022-10-18T18:46:38.507Z,8.47
2022-10-18T18:49:41.471Z,8.30
2022-10-18T18:52:44.387Z,8.38
2022-10-18T18:55:47.850Z,8.36
2022-10-18T18:58:52.232Z,8.31
2022-10-18T19:01:55.042Z,8.29
2022-10-18T19:04:57.908Z,8.19
2022-10-18T19:08:01.249Z,8.21
2022-10-18T19:11:08.965Z,8.21
2022-10-18T19:14:12.185Z,8.17
2022-10-18T19:17:15.165Z,8.13
2022-10-18T19:20:18.711Z,8.05
2022-10-18T19:23:21.615Z,8.00
2022-10-18T19:26:39.407Z,7.97
2022-10-18T19:29:43.889Z,7.86
2022-10-18T19:32:46.605Z,7.78
2022-10-18T19:35:49.416Z,7.82
2022-10-18T19:38:52.022Z,7.88
2022-10-18T19:41:57.276Z,7.89
2022-10-18T19:44:59.837Z,7.89
2022-10-18T19:48:02.619Z,7.84
2022-10-18T19:51:07.989Z,7.74
2022-10-18T19:54:13.623Z,7.82
2022-10-18T19:57:16.245Z,7.79
2022-10-18T20:00:19.750Z,7.81
2022-10-18T20:03:24.351Z,7.78
2022-10-18T20:06:26.991Z,7.71
2022-10-18T20:09:30.136Z,7.69
2022-10-18T20:12:33.078Z,7.70
2022-10-18T20:15:36.207Z,7.79
2022-10-18T20:18:39.274Z,7.70
2022-10-18T20:21:42.146Z,7.64
2022-10-18T20:24:44.694Z,7.58
2022-10-18T20:27:47.604Z,7.55
2022-10-18T20:31:05.238Z,7.56
2022-10-18T20:34:11.211Z,7.45
2022-10-18T20:37:13.709Z,7.51
2022-10-18T20:40:16.885Z,7.55
2022-10-18T20:43:19.479Z,7.55
2022-10-18T20:46:22.625Z,7.46
2022-10-18T20:49:25.270Z,7.52
2022-10-18T20:52:28.394Z,7.49
2022-10-18T20:55:30.920Z,7.54
2022-10-18T20:58:35.027Z,7.39
2022-10-18T21:01:38.742Z,7.45
2022-10-18T21:04:43.370Z,7.45
2022-10-18T21:07:46.017Z,7.36
2022-10-18T21:10:49.997Z,7.43
2022-10-18T21:13:59.617Z,7.43
2022-10-18T21:17:02.531Z,7.33
2022-10-18T21:20:06.667Z,7.32
2022-10-18T21:23:09.551Z,7.45
2022-10-18T21:26:18.621Z,7.45
2022-10-18T21:29:22.947Z,7.46
2022-10-18T21:32:25.494Z,7.39
2022-10-18T21:35:28.380Z,7.52
2022-10-18T21:38:31.159Z,7.54
2022-10-18T21:41:34.611Z,7.56
2022-10-18T21:44:37.816Z,7.60
2022-10-18T21:47:40.668Z,7.53
2022-10-18T21:50:43.196Z,7.63
2022-10-18T21:53:48.411Z,7.62
2022-10-18T21:56:51.737Z,7.65
2022-10-18T21:59:54.555Z,7.68
2022-10-18T22:03:10.805Z,7.70
2022-10-18T22:06:14.845Z,7.77
2022-10-18T22:09:17.952Z,7.78
2022-10-18T22:12:20.774Z,7.85
2022-10-18T22:15:23.439Z,7.84
2022-10-18T22:18:26.375Z,7.97
2022-10-18T22:21:29.497Z,8.05
2022-10-18T22:24:32.449Z,8.10
2022-10-18T22:27:35.444Z,8.15
2022-10-18T22:30:40.371Z,8.07
2022-10-18T22:33:43.276Z,8.16
2022-10-18T22:36:46.457Z,8.19
2022-10-18T22:39:49.106Z,8.22
2022-10-18T22:42:52.738Z,8.28
2022-10-18T22:45:55.276Z,8.33
2022-10-18T22:48:58.151Z,8.28
2022-10-18T22:52:00.658Z,8.46
2022-10-18T22:55:03.724Z,8.50
2022-10-18T22:58:06.545Z,8.47
2022-10-18T23:01:14.936Z,8.65
2022-10-18T23:04:17.430Z,8.71
2022-10-18T23:07:20.348Z,8.72
2022-10-18T23:10:25.016Z,8.74
2022-10-18T23:13:28.322Z,8.77
2022-10-18T23:16:31.506Z,8.82
2022-10-18T23:19:34.336Z,8.81
2022-10-18T23:22:36.888Z,8.82
2022-10-18T23:25:40.324Z,8.73
2022-10-18T23:28:45.435Z,8.83
2022-10-18T23:31:48.433Z,8.85
2022-10-18T23:34:52.215Z,8.88
2022-10-18T23:37:55.086Z,8.78
2022-10-18T23:40:59.515Z,8.87
2022-10-18T23:44:02.715Z,8.92
2022-10-18T23:47:05.450Z,8.94
2022-10-18T23:50:08.700Z,8.85
2022-10-18T23:53:11.438Z,8.81
2022-10-18T23:56:16.326Z,8.88
2022-10-18T23:59:18.854Z,8.94
